Time;durP1;ratioP1;P1;durP2;ratioP2;P2;SDS_P1;SDS_P2;PMS_P1;PMS_P2;Temp;Humidity;BMP_temperature;BMP_pressure;BME280_temperature;BME280_humidity;BME280_pressure;Samples;Min_cycle;Max_cycle;Signal;HPM_P1;HPM_P2
2022/08/07 00:02:25;;;;;;;7.78;5.12;;;;;;;19.93;100.00;100753.55;1607124;87;21103;-91
2022/08/07 00:04:54;;;;;;;5.30;4.80;;;;;;;19.90;100.00;100753.41;1607180;87;21088;-91
2022/08/07 00:07:24;;;;;;;6.25;5.00;;;;;;;19.88;100.00;100758.03;1606833;88;21139;-92
2022/08/07 00:09:52;;;;;;;6.05;4.92;;;;;;;19.84;100.00;100761.52;1606900;88;21114;-91
2022/08/07 00:12:19;;;;;;;5.95;4.83;;;;;;;19.80;100.00;100753.59;1606099;88;21104;-91
2022/08/07 00:14:48;;;;;;;7.70;5.17;;;;;;;19.78;100.00;100760.05;1609096;88;21051;-92
2022/08/07 00:17:15;;;;;;;5.45;4.85;;;;;;;19.74;100.00;100756.94;1559083;90;21060;-92
2022/08/07 00:19:44;;;;;;;6.58;5.00;;;;;;;19.72;100.00;100754.95;1612701;88;21123;-91
2022/08/07 00:22:11;;;;;;;5.58;5.10;;;;;;;19.69;100.00;100755.29;1606716;88;21090;-91
2022/08/07 00:24:38;;;;;;;5.00;4.60;;;;;;;19.66;100.00;100755.14;1605651;88;21140;-91
2022/08/07 00:27:05;;;;;;;9.08;4.80;;;;;;;19.64;100.00;100749.70;1601220;88;21132;-91
2022/08/07 00:29:33;;;;;;;5.17;4.60;;;;;;;19.62;100.00;100749.89;1600361;88;21654;-91
2022/08/07 00:32:00;;;;;;;5.72;4.83;;;;;;;19.61;100.00;100756.16;1604527;88;21165;-91
2022/08/07 00:34:29;;;;;;;7.15;4.72;;;;;;;19.58;100.00;100749.89;1602323;88;21658;-91
2022/08/07 00:36:56;;;;;;;7.22;4.70;;;;;;;19.58;100.00;100755.17;1605110;87;21073;-92
2022/08/07 00:39:26;;;;;;;6.92;4.62;;;;;;;19.55;100.00;100757.66;1604746;88;21073;-92
2022/08/07 00:41:57;;;;;;;8.38;4.37;;;;;;;19.54;100.00;100759.17;1597070;88;21094;-92
2022/08/07 00:44:25;;;;;;;6.15;4.80;;;;;;;19.54;100.00;100759.17;1591418;88;25472;-91
2022/08/07 00:46:53;;;;;;;5.42;4.12;;;;;;;19.53;100.00;100757.00;1591247;88;21000;-91
2022/08/07 00:49:23;;;;;;;5.30;4.80;;;;;;;19.50;100.00;100760.00;1591267;88;21092;-92
2022/08/07 00:51:54;;;;;;;5.00;4.50;;;;;;;19.47;100.00;100756.38;1591493;90;21047;-91
2022/08/07 00:54:22;;;;;;;7.08;4.70;;;;;;;19.43;100.00;100756.38;1591384;90;21007;-91
2022/08/07 00:56:50;;;;;;;8.55;5.05;;;;;;;19.39;100.00;100756.41;1591151;89;21157;-92
2022/08/07 00:59:17;;;;;;;5.53;5.00;;;;;;;19.32;100.00;100759.39;1591316;90;21158;-90
2022/08/07 01:01:45;;;;;;;6.62;4.47;;;;;;;19.25;100.00;100758.43;1591868;90;21054;-90
2022/08/07 01:04:12;;;;;;;5.35;4.78;;;;;;;19.19;100.00;100763.88;1591376;88;21067;-89
2022/08/07 01:06:40;;;;;;;5.05;4.50;;;;;;;19.12;100.00;100761.59;1591504;90;21074;-89
2022/08/07 01:09:07;;;;;;;4.83;4.42;;;;;;;19.06;100.00;100757.80;1591258;88;21765;-90
2022/08/07 01:11:37;;;;;;;5.78;4.80;;;;;;;19.02;100.00;100758.63;1591483;88;21181;-89
2022/08/07 01:14:05;;;;;;;4.58;4.12;;;;;;;18.96;100.00;100756.67;1568426;90;21082;-91
2022/08/07 01:16:35;;;;;;;6.50;4.45;;;;;;;18.91;100.00;100765.05;1574488;87;21037;-90
2022/08/07 01:19:04;;;;;;;6.08;4.85;;;;;;;18.90;100.00;100762.59;1610707;87;21508;-91
2022/08/07 01:21:35;;;;;;;5.55;5.05;;;;;;;18.87;100.00;100758.95;1612500;88;21172;-92
2022/08/07 01:24:03;;;;;;;6.42;5.00;;;;;;;18.86;100.00;100760.78;1616024;87;21123;-92
2022/08/07 01:26:35;;;;;;;5.53;4.90;;;;;;;18.84;100.00;100758.80;1611738;88;21015;-91
2022/08/07 01:29:02;;;;;;;5.12;4.65;;;;;;;18.84;100.00;100756.63;1601390;87;21589;-91
2022/08/07 01:31:31;;;;;;;6.78;5.08;;;;;;;18.83;100.00;100766.37;1607366;88;21069;-91
2022/08/07 01:34:01;;;;;;;6.25;5.12;;;;;;;18.84;100.00;100768.50;1606997;87;21182;-92
2022/08/07 01:36:33;;;;;;;5.85;5.28;;;;;;;18.83;100.00;100763.73;1618983;87;21083;-92
2022/08/07 01:39:03;;;;;;;5.05;4.53;;;;;;;18.82;100.00;100762.59;1605309;88;21049;-92
2022/08/07 01:41:34;;;;;;;5.30;4.50;;;;;;;18.80;100.00;100766.70;1621848;87;20996;-92
2022/08/07 01:44:04;;;;;;;4.62;4.22;;;;;;;18.78;100.00;100764.73;1605444;89;21500;-91
2022/08/07 01:46:35;;;;;;;5.78;3.98;;;;;;;18.76;100.00;100767.52;1620527;87;21132;-92
2022/08/07 01:49:02;;;;;;;5.92;4.22;;;;;;;18.76;100.00;100770.67;1573967;90;21626;-91
2022/08/07 01:51:33;;;;;;;4.78;4.00;;;;;;;18.74;100.00;100772.64;1608718;88;21088;-91
2022/08/07 01:54:06;;;;;;;4.67;4.22;;;;;;;18.70;100.00;100767.38;1590443;88;21147;-92
2022/08/07 01:56:57;;;;;;;5.72;4.40;;;;;;;18.66;100.00;100764.73;1592543;88;21011;-92
2022/08/07 01:59:31;;;;;;;5.08;4.28;;;;;;;18.62;100.00;100768.19;1591278;88;21186;-92
2022/08/07 02:02:06;;;;;;;5.78;4.50;;;;;;;18.59;100.00;100769.83;1620790;86;21115;-91
2022/08/07 02:04:52;;;;;;;5.83;4.53;;;;;;;18.56;100.00;100770.98;1600540;87;21012;-92
2022/08/07 02:07:23;;;;;;;7.85;4.67;;;;;;;18.53;100.00;100764.73;1619924;87;21106;-92
2022/08/07 02:09:57;;;;;;;5.28;4.72;;;;;;;18.53;100.00;100771.33;1622090;87;21040;-91
2022/08/07 02:12:30;;;;;;;9.53;4.95;;;;;;;18.52;100.00;100772.31;1620065;87;22234;-91
2022/08/07 02:15:01;;;;;;;5.37;4.87;;;;;;;18.50;100.00;100769.52;1617752;87;21096;-91
2022/08/07 02:17:39;;;;;;;7.70;5.10;;;;;;;18.46;100.00;100772.97;1619633;87;21087;-91
2022/08/07 02:20:09;;;;;;;5.00;4.60;;;;;;;18.42;100.00;100772.48;1620221;87;21134;-91
2022/08/07 02:22:41;;;;;;;6.45;4.50;;;;;;;18.40;100.00;100772.28;1620553;87;21561;-91
2022/08/07 02:25:13;;;;;;;5.20;4.67;;;;;;;18.39;100.00;100782.49;1558416;90;21157;-91
2022/08/07 02:27:45;;;;;;;8.90;4.92;;;;;;;18.37;100.00;100782.67;1575120;90;21040;-91
2022/08/07 02:30:16;;;;;;;6.45;4.97;;;;;;;18.35;100.00;100783.82;1575766;89;21010;-91
2022/08/07 02:32:44;;;;;;;7.87;4.78;;;;;;;18.35;100.00;100783.31;1574490;89;21927;-91
2022/08/07 02:35:17;;;;;;;5.28;4.50;;;;;;;18.35;100.00;100786.45;1577511;89;21100;-91
2022/08/07 02:37:45;;;;;;;5.45;4.90;;;;;;;18.33;100.00;100787.11;1570327;90;21170;-91
2022/08/07 02:40:15;;;;;;;11.25;5.33;;;;;;;18.30;100.00;100785.63;1571777;90;21106;-91
2022/08/07 02:42:46;;;;;;;6.78;4.95;;;;;;;18.28;100.00;100785.80;1585098;89;21618;-92
2022/08/07 02:45:16;;;;;;;6.28;4.67;;;;;;;18.24;100.00;100788.91;1544808;91;21056;-91
2022/08/07 02:47:47;;;;;;;5.40;4.87;;;;;;;18.21;100.00;100794.02;1539331;92;21104;-92
2022/08/07 02:50:15;;;;;;;5.87;5.05;;;;;;;18.18;100.00;100795.65;1558497;90;21253;-91
2022/08/07 02:52:56;;;;;;;5.62;4.90;;;;;;;18.16;100.00;100796.30;1558423;90;21110;-91
2022/08/07 02:55:28;;;;;;;6.47;5.03;;;;;;;18.17;100.00;100792.67;1562081;88;21108;-91
2022/08/07 02:58:01;;;;;;;5.58;4.78;;;;;;;18.19;100.00;100797.78;1570791;89;21399;-92
2022/08/07 03:00:33;;;;;;;5.37;4.65;;;;;;;18.20;100.00;100797.64;1568244;89;21075;-91
2022/08/07 03:03:02;;;;;;;5.03;4.45;;;;;;;18.23;100.00;100805.20;1572249;89;21170;-92
2022/08/07 03:05:30;;;;;;;8.65;4.70;;;;;;;18.26;100.00;100805.39;1559689;90;21069;-92
2022/08/07 03:08:00;;;;;;;5.03;4.37;;;;;;;18.31;100.00;100806.23;1574832;89;21058;-91
2022/08/07 03:10:28;;;;;;;7.67;4.37;;;;;;;18.34;100.00;100805.42;1572068;90;21050;-92
2022/08/07 03:12:55;;;;;;;5.40;4.90;;;;;;;18.38;100.00;100809.87;1572532;90;21621;-91
2022/08/07 03:15:23;;;;;;;6.92;4.42;;;;;;;18.42;100.00;100809.86;1572209;90;21138;-92
2022/08/07 03:17:52;;;;;;;5.10;4.60;;;;;;;18.45;100.00;100805.09;1572092;90;21603;-91
2022/08/07 03:20:21;;;;;;;6.00;4.78;;;;;;;18.49;100.00;100809.54;1572359;91;21525;-92
2022/08/07 03:22:51;;;;;;;4.97;4.22;;;;;;;18.52;100.00;100805.27;1570062;90;21098;-91
2022/08/07 03:25:19;;;;;;;7.53;5.00;;;;;;;18.55;100.00;100808.88;1551495;90;21155;-91
2022/08/07 03:27:51;;;;;;;6.60;4.60;;;;;;;18.56;100.00;100809.22;1548584;91;21310;-91
2022/08/07 03:30:24;;;;;;;8.50;4.87;;;;;;;18.58;100.00;100809.08;1608382;87;21037;-91
2022/08/07 03:32:53;;;;;;;8.05;5.03;;;;;;;18.60;100.00;100809.72;1621418;87;21047;-91
2022/08/07 03:35:27;;;;;;;11.33;5.55;;;;;;;18.65;100.00;100813.18;1601424;88;21048;-91
2022/08/07 03:38:02;;;;;;;6.22;4.78;;;;;;;18.69;100.00;100809.24;1621475;87;21080;-91
2022/08/07 03:40:31;;;;;;;5.60;4.83;;;;;;;18.73;100.00;100807.91;1598865;88;21267;-91
2022/08/07 03:43:01;;;;;;;5.87;5.22;;;;;;;18.78;100.00;100813.54;1605095;89;21496;-91
2022/08/07 03:45:32;;;;;;;8.93;5.17;;;;;;;18.83;100.00;100809.90;1621663;87;21115;-91
2022/08/07 03:48:05;;;;;;;9.83;4.85;;;;;;;18.88;100.00;100812.05;1600023;88;21089;-91
2022/08/07 03:50:34;;;;;;;6.25;5.00;;;;;;;18.95;100.00;100817.02;1622070;87;21130;-92
2022/08/07 03:53:03;;;;;;;6.97;5.33;;;;;;;19.03;100.00;100817.02;1621643;87;21461;-91
2022/08/07 03:55:33;;;;;;;7.17;5.20;;;;;;;19.11;100.00;100813.53;1605021;88;21072;-91
2022/08/07 03:58:04;;;;;;;7.85;5.00;;;;;;;19.17;100.00;100819.48;1621666;87;21633;-91
2022/08/07 04:00:36;;;;;;;6.25;5.65;;;;;;;19.25;100.00;100820.45;1608738;87;21471;-92
2022/08/07 04:03:04;;;;;;;7.87;5.60;;;;;;;19.34;100.00;100820.78;1608368;88;21064;-91
2022/08/07 04:05:37;;;;;;;7.42;5.87;;;;;;;19.42;100.00;100818.12;1608812;87;21187;-91
2022/08/07 04:08:04;;;;;;;6.28;5.35;;;;;;;19.51;100.00;100819.72;1608532;87;21108;-92
2022/08/07 04:10:35;;;;;;;5.65;4.90;;;;;;;19.59;100.00;100811.48;1608360;87;21463;-92
2022/08/07 04:13:04;;;;;;;7.12;5.50;;;;;;;19.68;100.00;100813.91;1608246;87;21575;-92
2022/08/07 04:15:33;;;;;;;7.00;5.90;;;;;;;19.77;100.00;100812.56;1608517;87;20965;-92
2022/08/07 04:18:04;;;;;;;7.90;5.22;;;;;;;19.87;100.00;100814.52;1608256;87;21286;-92
2022/08/07 04:20:33;;;;;;;8.08;5.62;;;;;;;19.98;100.00;100809.37;1608254;87;21048;-91
2022/08/07 04:23:01;;;;;;;8.70;5.45;;;;;;;20.08;100.00;100812.59;1608784;87;21024;-92
2022/08/07 04:25:32;;;;;;;7.15;5.75;;;;;;;20.19;100.00;100810.05;1607983;87;21570;-91
2022/08/07 04:28:01;;;;;;;7.10;5.87;;;;;;;20.30;100.00;100807.54;1608717;87;21057;-93
2022/08/07 04:30:34;;;;;;;12.18;6.10;;;;;;;20.40;100.00;100812.08;1608533;87;21178;-92
2022/08/07 04:33:10;;;;;;;6.67;5.85;;;;;;;20.50;100.00;100818.48;1608317;87;21505;-92
2022/08/07 04:35:40;;;;;;;9.88;5.85;;;;;;;20.59;100.00;100814.75;1607975;88;21048;-92
2022/08/07 04:38:09;;;;;;;14.65;5.58;;;;;;;20.69;100.00;100811.05;1608693;88;21060;-93
2022/08/07 04:40:45;;;;;;;7.90;6.70;;;;;;;20.79;100.00;100811.67;1615466;87;21063;-92
2022/08/07 04:43:21;;;;;;;8.83;6.25;;;;;;;20.87;100.00;100814.25;1607233;87;21182;-92
2022/08/07 04:46:03;;;;;;;7.42;6.50;;;;;;;20.97;100.00;100812.67;1601967;87;21747;-92
2022/08/07 04:48:50;;;;;;;12.28;7.00;;;;;;;21.04;100.00;100817.56;1594812;87;21641;-92
2022/08/07 04:51:44;;;;;;;7.65;6.83;;;;;;;21.12;100.00;100814.84;1590024;88;21088;-93
2022/08/07 04:54:42;;;;;;;13.50;6.75;;;;;;;21.23;100.00;100814.09;1580933;89;21028;-92
2022/08/07 04:57:56;;;;;;;8.70;6.30;;;;;;;21.34;100.00;100818.95;1606912;87;21202;-91
2022/08/07 05:00:38;;;;;;;9.63;6.03;;;;;;;21.47;100.00;100816.16;1620791;87;21035;-91
2022/08/07 05:03:13;;;;;;;6.78;5.47;;;;;;;21.59;100.00;100824.83;1616638;87;21125;-90
2022/08/07 05:06:06;;;;;;;14.10;6.42;;;;;;;21.70;100.00;100818.23;1603906;87;21601;-91
2022/08/07 05:09:14;;;;;;;6.90;6.17;;;;;;;21.80;100.00;100825.89;1547156;91;21138;-91
2022/08/07 05:11:49;;;;;;;8.20;6.58;;;;;;;21.89;100.00;100818.69;1590220;88;21253;-91
2022/08/07 05:14:33;;;;;;;8.18;6.67;;;;;;;22.02;100.00;100820.16;1584070;89;21014;-91
2022/08/07 05:17:04;;;;;;;7.22;6.37;;;;;;;22.14;100.00;100821.02;1583125;89;21119;-91
2022/08/07 05:19:43;;;;;;;11.15;7.00;;;;;;;22.25;100.00;100822.34;1581522;89;21069;-91
2022/08/07 05:22:15;;;;;;;12.47;7.17;;;;;;;22.36;100.00;100825.81;1586119;88;21083;-90
2022/08/07 05:24:47;;;;;;;11.18;7.10;;;;;;;22.46;100.00;100822.39;1583865;89;21598;-91
2022/08/07 05:27:17;;;;;;;7.67;6.87;;;;;;;22.58;100.00;100830.66;1584276;89;21088;-91
2022/08/07 05:29:49;;;;;;;10.03;6.60;;;;;;;22.70;100.00;100827.00;1584232;89;21059;-91
2022/08/07 05:32:20;;;;;;;9.10;6.85;;;;;;;22.81;100.00;100825.17;1604601;85;21506;-92
2022/08/07 05:34:49;;;;;;;12.35;7.20;;;;;;;22.94;100.00;100828.44;1613808;87;21127;-91
2022/08/07 05:37:18;;;;;;;9.98;6.65;;;;;;;23.06;100.00;100820.77;1605718;87;21165;-90
2022/08/07 05:39:49;;;;;;;10.05;7.40;;;;;;;23.18;100.00;100827.73;1581020;89;21107;-91
2022/08/07 05:42:17;;;;;;;9.08;6.67;;;;;;;23.31;100.00;100830.98;1612253;87;21052;-90
2022/08/07 05:44:49;;;;;;;8.53;6.58;;;;;;;23.42;100.00;100836.26;1621382;87;21044;-91
2022/08/07 05:47:18;;;;;;;7.00;5.75;;;;;;;23.53;100.00;100835.69;1611499;87;21071;-91
2022/08/07 05:49:50;;;;;;;9.08;6.35;;;;;;;23.68;100.00;100837.39;1602563;88;21245;-91
2022/08/07 05:52:23;;;;;;;6.75;5.72;;;;;;;23.81;100.00;100836.15;1596090;88;21009;-91
2022/08/07 05:54:51;;;;;;;10.20;5.67;;;;;;;23.95;100.00;100841.05;1611086;87;21015;-91
2022/08/07 05:57:20;;;;;;;9.73;5.60;;;;;;;24.10;100.00;100844.38;1591342;88;21044;-91
2022/08/07 05:59:48;;;;;;;7.58;5.62;;;;;;;24.23;100.00;100833.45;1610263;87;21438;-91
2022/08/07 06:02:20;;;;;;;6.45;5.50;;;;;;;24.36;100.00;100836.14;1592799;89;22233;-91
2022/08/07 06:04:55;;;;;;;5.40;4.92;;;;;;;24.45;100.00;100835.45;1616690;87;21103;-90
2022/08/07 06:07:23;;;;;;;6.25;4.83;;;;;;;24.54;100.00;100836.06;1574355;90;21036;-91
2022/08/07 06:09:52;;;;;;;6.12;4.65;;;;;;;24.64;100.00;100832.50;1611742;87;21039;-91
2022/08/07 06:12:22;;;;;;;9.33;5.00;;;;;;;24.76;100.00;100830.61;1615664;87;21048;-90
2022/08/07 06:14:51;;;;;;;5.20;4.60;;;;;;;24.87;100.00;100834.81;1603969;87;21191;-91
2022/08/07 06:17:19;;;;;;;6.20;5.20;;;;;;;24.98;100.00;100833.37;1586167;89;21040;-91
2022/08/07 06:19:49;;;;;;;7.12;5.00;;;;;;;25.11;100.00;100837.88;1597317;88;21063;-91
2022/08/07 06:22:20;;;;;;;4.80;4.42;;;;;;;25.23;100.00;100833.23;1607328;87;21112;-91
2022/08/07 06:24:48;;;;;;;4.97;4.30;;;;;;;25.36;100.00;100832.70;1604148;87;21118;-91
2022/08/07 06:27:23;;;;;;;6.70;4.67;;;;;;;25.51;100.00;100832.49;1596452;88;21173;-91
2022/08/07 06:29:53;;;;;;;8.10;4.72;;;;;;;25.65;100.00;100830.58;1594835;89;21043;-91
2022/08/07 06:32:21;;;;;;;6.28;4.55;;;;;;;25.79;100.00;100830.55;1601215;87;21070;-91
2022/08/07 06:34:51;;;;;;;7.22;5.22;;;;;;;25.92;100.00;100831.02;1589256;88;21209;-92
2022/08/07 06:37:18;;;;;;;5.53;4.72;;;;;;;26.06;100.00;100825.91;1589284;89;21079;-92
2022/08/07 06:39:46;;;;;;;6.05;5.35;;;;;;;26.18;100.00;100822.58;1593261;87;21232;-92
2022/08/07 06:42:22;;;;;;;5.62;5.10;;;;;;;26.28;100.00;100826.41;1599272;88;21066;-91
2022/08/07 06:44:56;;;;;;;5.92;5.30;;;;;;;26.38;100.00;100827.80;1605354;87;21166;-91
2022/08/07 06:47:23;;;;;;;5.90;5.33;;;;;;;26.50;100.00;100828.75;1605502;89;21544;-92
2022/08/07 06:49:53;;;;;;;6.22;5.50;;;;;;;26.61;99.52;100825.89;1595775;88;21062;-92
2022/08/07 06:52:31;;;;;;;6.78;5.53;;;;;;;26.71;100.00;100827.57;1590369;88;21799;-91
2022/08/07 06:55:01;;;;;;;5.80;5.17;;;;;;;26.83;100.00;100825.54;1590314;88;21057;-92
2022/08/07 06:57:31;;;;;;;;;;;;;;;26.95;97.58;100830.48;1593480;88;21077;-92
2022/08/07 07:00:08;;;;;;;8.65;5.83;;;;;;;27.08;94.12;100829.02;1601026;88;20165;-93
2022/08/07 07:02:37;;;;;;;7.10;4.80;;;;;;;27.18;91.70;100831.17;1607543;87;21053;-91
2022/08/07 07:05:05;;;;;;;13.05;5.62;;;;;;;27.28;91.49;100827.18;1607639;88;21285;-91
2022/08/07 07:07:34;;;;;;;11.83;6.05;;;;;;;27.39;98.42;100823.25;1607400;87;21555;-91
2022/08/07 07:10:03;;;;;;;9.48;5.25;;;;;;;27.51;99.00;100825.22;1602076;87;21611;-91
2022/08/07 07:12:53;;;;;;;9.95;5.55;;;;;;;27.64;100.00;100826.39;1600127;88;21019;-92
2022/08/07 07:15:30;;;;;;;8.83;4.50;;;;;;;27.76;97.52;100827.80;1585757;87;21132;-91
2022/08/07 07:18:16;;;;;;;9.75;4.80;;;;;;;27.88;92.88;100826.52;1561359;90;21268;-92
2022/08/07 07:20:50;;;;;;;5.65;3.90;;;;;;;27.99;88.15;100825.76;1604390;88;20961;-92
2022/08/07 07:23:19;;;;;;;5.90;4.28;;;;;;;28.10;84.43;100823.36;1590814;90;21140;-92
2022/08/07 07:25:54;;;;;;;8.18;4.62;;;;;;;28.20;85.21;100822.30;1586978;89;21792;-93
2022/08/07 07:28:47;;;;;;;5.85;4.37;;;;;;;28.32;86.60;100816.98;1579756;89;21146;-91
2022/08/07 07:31:25;;;;;;;8.25;4.05;;;;;;;28.44;90.86;100811.65;1536587;92;21826;-91
2022/08/07 07:34:00;;;;;;;6.50;4.00;;;;;;;28.59;95.22;100816.58;1572821;88;21031;-91
2022/08/07 07:36:32;;;;;;;8.28;3.87;;;;;;;28.70;96.70;100821.14;1588827;88;21073;-91
2022/08/07 07:39:02;;;;;;;4.28;3.50;;;;;;;28.79;89.29;100805.56;1583560;89;21083;-91
2022/08/07 07:41:34;;;;;;;4.22;3.10;;;;;;;28.87;82.21;100807.89;1584855;89;21086;-92
2022/08/07 07:44:04;;;;;;;4.40;3.08;;;;;;;28.95;79.59;100814.24;1590791;88;21175;-92
2022/08/07 07:46:36;;;;;;;4.17;3.58;;;;;;;29.03;83.41;100813.59;1590232;88;21086;-92
2022/08/07 07:49:05;;;;;;;4.08;3.10;;;;;;;29.15;85.99;100816.27;1582608;89;21556;-92
2022/08/07 07:51:37;;;;;;;3.17;2.83;;;;;;;29.25;82.04;100814.62;1579659;89;21086;-91
2022/08/07 07:54:09;;;;;;;6.42;3.00;;;;;;;29.35;79.94;100823.96;1573708;89;21101;-91
2022/08/07 07:56:38;;;;;;;4.53;2.65;;;;;;;29.44;80.16;100811.83;1570420;89;21107;-89
2022/08/07 07:59:07;;;;;;;5.22;2.60;;;;;;;29.55;74.81;100810.96;1580140;89;21059;-92
2022/08/07 08:01:41;;;;;;;5.67;2.92;;;;;;;29.65;76.72;100815.70;1591600;88;21085;-89
2022/08/07 08:04:10;;;;;;;6.97;2.80;;;;;;;29.74;73.98;100818.84;1580395;89;21130;-90
2022/08/07 08:06:41;;;;;;;6.03;2.90;;;;;;;29.82;70.06;100814.44;1585082;88;21129;-90
2022/08/07 08:09:08;;;;;;;;;;;;;;;29.92;67.33;100819.20;1585759;88;21270;-91
2022/08/07 08:11:39;;;;;;;3.37;3.10;;;;;;;30.01;70.99;100815.59;1594776;88;20176;-91
2022/08/07 08:14:10;;;;;;;6.28;2.85;;;;;;;30.10;67.48;100814.70;1596380;88;21074;-92
2022/08/07 08:16:42;;;;;;;3.95;2.80;;;;;;;30.19;63.71;100817.28;1587125;88;21135;-91
2022/08/07 08:19:17;;;;;;;3.35;2.85;;;;;;;30.30;65.94;100817.72;1590870;88;21068;-91
2022/08/07 08:27:39;;;;;;;4.33;2.85;;;;;;;30.56;60.52;100811.47;1589380;89;21096;-90
2022/08/07 08:30:12;;;;;;;5.33;2.83;;;;;;;30.57;62.02;100809.61;1595985;88;21075;-90
2022/08/07 08:32:59;;;;;;;4.83;3.02;;;;;;;30.59;59.92;100809.64;1616679;87;21082;-90
2022/08/07 08:35:28;;;;;;;7.55;2.90;;;;;;;30.65;56.95;100805.14;1625423;85;21259;-90
2022/08/07 08:38:02;;;;;;;3.47;3.00;;;;;;;30.75;58.55;100802.61;1643438;87;21044;-90
2022/08/07 08:40:36;;;;;;;6.55;3.10;;;;;;;30.86;58.21;100808.14;1643454;86;21032;-92
2022/08/07 08:43:41;;;;;;;4.42;2.87;;;;;;;30.95;58.09;100802.64;1640266;86;21045;-91
2022/08/07 08:46:21;;;;;;;4.25;3.25;;;;;;;31.06;61.89;100803.05;1643590;87;21581;-91
2022/08/07 08:49:02;;;;;;;6.47;3.42;;;;;;;31.19;62.51;100799.21;1640719;86;21141;-90
2022/08/07 08:51:37;;;;;;;8.28;3.55;;;;;;;31.33;62.48;100808.27;1640496;86;21653;-91
2022/08/07 08:54:17;;;;;;;5.08;3.35;;;;;;;31.42;56.82;100811.61;1584011;90;21070;-90
2022/08/07 08:56:51;;;;;;;3.33;3.02;;;;;;;31.50;59.69;100808.20;1583943;89;21053;-90
2022/08/07 08:59:43;;;;;;;5.67;3.02;;;;;;;31.54;54.04;100806.62;1584103;89;21149;-90
2022/08/07 09:02:52;;;;;;;4.03;2.83;;;;;;;31.59;55.31;100807.50;1584377;89;21563;-90
2022/08/07 09:05:37;;;;;;;3.27;2.95;;;;;;;31.68;55.71;100808.42;1579170;89;22559;-89
2022/08/07 09:08:31;;;;;;;6.53;3.42;;;;;;;31.73;52.94;100809.84;1583092;90;21100;-91
2022/08/07 09:11:31;;;;;;;7.22;3.12;;;;;;;31.78;51.67;100805.85;1583834;89;21505;-90
2022/08/07 09:14:35;;;;;;;9.98;3.37;;;;;;;31.86;52.92;100800.02;1584407;89;21022;-90
2022/08/07 09:17:28;;;;;;;4.53;2.58;;;;;;;31.93;48.58;100805.17;1583092;89;21189;-92
2022/08/07 09:20:16;;;;;;;3.87;3.02;;;;;;;31.93;44.73;100795.75;1584140;90;21106;-91
2022/08/07 09:23:14;;;;;;;4.62;2.60;;;;;;;32.00;49.36;100798.25;1584100;88;21059;-91
2022/08/07 09:26:01;;;;;;;5.97;2.58;;;;;;;32.02;45.86;100798.81;1583480;89;21097;-91
2022/08/07 09:28:37;;;;;;;4.37;3.00;;;;;;;32.01;45.48;100799.87;1493051;95;21077;-91
2022/08/07 09:31:36;;;;;;;6.42;2.40;;;;;;;32.04;45.17;100798.84;1562077;90;21145;-88
2022/08/07 09:34:16;;;;;;;3.42;2.65;;;;;;;32.10;46.63;100797.80;1564639;90;21079;-90
2022/08/07 09:37:03;;;;;;;5.57;2.90;;;;;;;32.17;46.88;100794.91;1564858;88;21524;-88
2022/08/07 09:39:51;;;;;;;2.77;2.47;;;;;;;32.22;45.61;100794.17;1575361;89;21145;-89
2022/08/07 09:42:40;;;;;;;5.78;2.70;;;;;;;32.30;44.18;100797.75;1512985;93;21046;-91
2022/08/07 09:45:25;;;;;;;2.70;2.50;;;;;;;32.35;43.89;100792.39;1527776;92;21189;-91
2022/08/07 09:48:26;;;;;;;3.02;2.80;;;;;;;32.38;43.29;100794.58;1546391;91;21585;-91
2022/08/07 09:51:42;;;;;;;3.30;2.30;;;;;;;32.41;42.83;100790.55;1551530;91;21661;-91
2022/08/07 09:54:21;;;;;;;4.05;2.27;;;;;;;32.48;43.10;100787.65;1550753;91;21545;-91
2022/08/07 09:57:11;;;;;;;3.62;2.45;;;;;;;32.58;42.53;100782.31;1550420;92;21092;-91
2022/08/07 10:00:05;;;;;;;5.25;2.52;;;;;;;32.64;44.31;100792.59;1549227;91;21179;-91
2022/08/07 10:02:57;;;;;;;5.15;2.80;;;;;;;32.68;45.28;100789.13;1552696;91;21063;-93
2022/08/07 10:05:54;;;;;;;3.37;2.17;;;;;;;32.72;41.82;100788.89;1550369;91;21079;-94
2022/08/07 10:09:07;;;;;;;2.65;2.10;;;;;;;32.73;40.93;100786.45;1552756;91;21195;-93
2022/08/07 10:12:01;;;;;;;5.55;1.95;;;;;;;32.74;40.32;100785.94;1552402;91;22129;-91
2022/08/07 10:14:55;;;;;;;9.43;2.70;;;;;;;32.78;38.16;100786.25;1568005;89;21192;-94
2022/08/07 10:18:05;;;;;;;4.25;2.15;;;;;;;32.79;39.41;100793.27;1581878;89;21067;-95
2022/08/07 10:21:12;;;;;;;5.08;2.50;;;;;;;32.80;39.28;100788.16;1587264;87;21060;-91
2022/08/07 10:24:10;;;;;;;5.15;2.65;;;;;;;32.80;39.02;100785.46;1578046;85;21090;-93
2022/08/07 10:27:01;;;;;;;6.10;2.80;;;;;;;32.81;39.30;100787.89;1542144;89;21240;-91
2022/08/07 10:29:53;;;;;;;2.60;2.40;;;;;;;32.81;38.49;100787.09;1635340;86;21096;-91
2022/08/07 10:32:57;;;;;;;3.87;2.30;;;;;;;32.79;39.66;100787.88;1603830;88;21009;-91
2022/08/07 10:36:17;;;;;;;6.47;2.10;;;;;;;32.82;38.18;100785.47;1591391;88;22236;-91
2022/08/07 10:39:11;;;;;;;3.47;2.10;;;;;;;32.92;39.58;100779.31;1581773;89;21067;-93
2022/08/07 10:41:50;;;;;;;3.25;2.27;;;;;;;33.00;37.34;100772.63;1558017;91;21361;-94
2022/08/07 10:44:31;;;;;;;6.15;2.83;;;;;;;33.09;39.17;100771.02;1590268;88;21216;-93
2022/08/07 10:47:32;;;;;;;3.60;2.50;;;;;;;33.19;41.56;100772.97;1570834;88;21051;-91
2022/08/07 10:50:27;;;;;;;3.00;2.70;;;;;;;33.22;38.65;100777.83;1561579;88;21154;-91
2022/08/07 10:53:37;;;;;;;5.87;2.47;;;;;;;33.18;38.42;100768.66;1606862;87;21065;-90
2022/08/07 10:56:35;;;;;;;9.03;2.00;;;;;;;33.22;40.40;100769.73;1626021;87;21026;-93
2022/08/07 10:59:36;;;;;;;5.53;1.98;;;;;;;33.30;42.34;100763.83;1632473;87;22094;-92
2022/08/07 11:02:40;;;;;;;9.03;1.80;;;;;;;33.38;37.25;100769.81;1580168;89;21022;-93
2022/08/07 11:05:29;;;;;;;2.85;1.80;;;;;;;33.42;36.68;100768.22;1616331;87;21089;-92
2022/08/07 11:08:10;;;;;;;3.12;1.55;;;;;;;33.45;35.08;100765.00;1604611;89;21639;-91
2022/08/07 11:11:01;;;;;;;2.75;1.50;;;;;;;33.49;36.47;100764.73;1602932;88;21125;-91
2022/08/07 11:13:42;;;;;;;3.02;1.62;;;;;;;33.58;36.13;100763.14;1603402;88;21199;-92
2022/08/07 11:16:29;;;;;;;5.70;1.90;;;;;;;33.69;34.64;100763.16;1605497;87;21101;-92
2022/08/07 11:19:25;;;;;;;2.30;1.90;;;;;;;33.78;36.53;100766.41;1601337;87;21126;-92
2022/08/07 11:22:27;;;;;;;1.77;1.60;;;;;;;33.86;36.32;100759.69;1602628;89;38676;-91
2022/08/07 11:25:15;;;;;;;3.10;1.60;;;;;;;33.83;35.35;100754.81;1603031;87;21034;-91
2022/08/07 11:27:53;;;;;;;3.25;1.85;;;;;;;33.72;35.58;100761.27;1598967;87;21223;-92
2022/08/07 11:30:25;;;;;;;2.22;1.82;;;;;;;33.64;36.74;100755.87;1559512;91;21596;-92
2022/08/07 11:33:22;;;;;;;3.25;2.00;;;;;;;33.68;35.74;100764.24;1557001;90;21106;-92
2022/08/07 11:36:07;;;;;;;5.70;2.00;;;;;;;33.66;35.23;100753.17;1557947;90;21074;-93
2022/08/07 11:39:00;;;;;;;4.30;2.25;;;;;;;33.63;37.17;100749.64;1558043;91;21078;-92
2022/08/07 11:41:38;;;;;;;3.80;2.12;;;;;;;33.69;35.06;100751.81;1562957;90;21294;-91
2022/08/07 11:44:19;;;;;;;1.55;1.45;;;;;;;33.70;34.07;100755.31;1559164;89;21041;-92
2022/08/07 11:47:27;;;;;;;3.00;1.72;;;;;;;33.72;36.04;100749.94;1556072;90;21203;-92
2022/08/07 11:50:15;;;;;;;2.15;1.92;;;;;;;33.79;37.51;100742.91;1557753;90;21033;-93
2022/08/07 11:52:55;;;;;;;3.00;1.80;;;;;;;33.91;39.76;100742.16;1562858;90;21134;-92
2022/08/07 11:55:45;;;;;;;7.07;1.73;;;;;;;33.93;33.26;100739.18;1559441;90;21199;-92
2022/08/07 11:58:26;;;;;;;3.65;1.57;;;;;;;33.93;33.26;100739.18;1546629;91;27095;-93
2022/08/07 12:01:49;;;;;;;2.37;1.70;;;;;;;33.86;33.53;100738.09;1555450;91;21026;-94
2022/08/07 12:04:37;;;;;;;3.08;1.77;;;;;;;33.82;32.79;100739.69;1556612;90;21132;-91
2022/08/07 12:07:44;;;;;;;2.40;2.02;;;;;;;33.85;33.25;100732.96;1560604;91;21136;-92
2022/08/07 12:10:31;;;;;;;6.17;2.15;;;;;;;33.82;31.96;100731.59;1561861;90;22068;-90
2022/08/07 12:13:13;;;;;;;2.60;1.72;;;;;;;33.85;33.60;100726.21;1562801;90;21060;-92